Terminal Aerodrome Forecast
Issued by NWS

Home | Current Version | Previous Version | Text Only | Print | Product List | Glossary On
Versions: 1 2 3 4 5 6 7 8 9 10 11 12 13 14 15 16 17 18 19 20 21 22 23 24 25
534
FTUS44 KLZK 161240 AAA
TAFBPK
TAF AMD
KBPK 161240Z 1613/1712 14010KT 4SM -RA BR OVC002 WS020/18040KT
      TEMPO 1613/1614 1/2SM -RA FG VV002
     FM161600 16010G18KT 3SM -RA BR VCTS BKN008CB OVC025
      WS020/19045KT
     FM162200 18012G22KT P6SM VCSH OVC015
     FM170200 22009KT P6SM VCSH SCT025 BKN050 OVC100=

USA.gov is the U.S. government's official web portal to all federal, state and local government web resources and services.